sensor_id;sensor_type;location;lat;lon;timestamp;P1;durP1;ratioP1;P2;durP2;ratioP2
20245;SDS011;10281;54.406;18.556;2022-11-13T00:01:13;12.27;;;6.63;;
20245;SDS011;10281;54.406;18.556;2022-11-13T00:03:44;11.07;;;6.03;;
20245;SDS011;10281;54.406;18.556;2022-11-13T00:06:11;11.93;;;6.63;;
20245;SDS011;10281;54.406;18.556;2022-11-13T00:08:38;12.23;;;6.67;;
20245;SDS011;10281;54.406;18.556;2022-11-13T00:11:08;14.77;;;8.00;;
20245;SDS011;10281;54.406;18.556;2022-11-13T00:13:38;12.83;;;7.47;;
20245;SDS011;10281;54.406;18.556;2022-11-13T00:16:06;12.03;;;7.77;;
20245;SDS011;10281;54.406;18.556;2022-11-13T00:18:36;12.23;;;7.37;;
20245;SDS011;10281;54.406;18.556;2022-11-13T00:21:05;14.07;;;7.07;;
20245;SDS011;10281;54.406;18.556;2022-11-13T00:23:34;14.47;;;7.00;;
20245;SDS011;10281;54.406;18.556;2022-11-13T00:26:03;12.53;;;7.40;;
20245;SDS011;10281;54.406;18.556;2022-11-13T00:28:34;13.37;;;6.43;;
20245;SDS011;10281;54.406;18.556;2022-11-13T00:31:01;16.23;;;7.47;;
20245;SDS011;10281;54.406;18.556;2022-11-13T00:33:29;10.67;;;6.97;;
20245;SDS011;10281;54.406;18.556;2022-11-13T00:36:01;16.80;;;7.73;;
20245;SDS011;10281;54.406;18.556;2022-11-13T00:38:44;13.37;;;7.60;;
20245;SDS011;10281;54.406;18.556;2022-11-13T00:41:11;10.67;;;6.33;;
20245;SDS011;10281;54.406;18.556;2022-11-13T00:43:38;9.70;;;6.10;;
20245;SDS011;10281;54.406;18.556;2022-11-13T00:46:05;11.20;;;6.70;;
20245;SDS011;10281;54.406;18.556;2022-11-13T00:48:33;12.60;;;6.93;;
20245;SDS011;10281;54.406;18.556;2022-11-13T00:51:00;13.43;;;6.40;;
20245;SDS011;10281;54.406;18.556;2022-11-13T00:53:28;10.10;;;6.83;;
20245;SDS011;10281;54.406;18.556;2022-11-13T00:55:55;10.60;;;5.80;;
20245;SDS011;10281;54.406;18.556;2022-11-13T00:58:21;9.20;;;5.87;;
20245;SDS011;10281;54.406;18.556;2022-11-13T01:00:48;12.33;;;6.80;;
20245;SDS011;10281;54.406;18.556;2022-11-13T01:03:15;11.83;;;6.70;;
20245;SDS011;10281;54.406;18.556;2022-11-13T01:05:43;12.00;;;6.43;;
20245;SDS011;10281;54.406;18.556;2022-11-13T01:08:12;12.47;;;6.77;;
20245;SDS011;10281;54.406;18.556;2022-11-13T01:10:42;14.00;;;6.70;;
20245;SDS011;10281;54.406;18.556;2022-11-13T01:13:11;12.13;;;7.10;;
20245;SDS011;10281;54.406;18.556;2022-11-13T01:15:38;14.03;;;7.17;;
20245;SDS011;10281;54.406;18.556;2022-11-13T01:18:06;14.23;;;6.80;;
20245;SDS011;10281;54.406;18.556;2022-11-13T01:20:33;14.37;;;7.50;;
20245;SDS011;10281;54.406;18.556;2022-11-13T01:23:00;16.03;;;8.20;;
20245;SDS011;10281;54.406;18.556;2022-11-13T01:25:28;27.37;;;17.80;;
20245;SDS011;10281;54.406;18.556;2022-11-13T01:27:55;13.83;;;7.50;;
20245;SDS011;10281;54.406;18.556;2022-11-13T01:30:22;13.33;;;8.13;;
20245;SDS011;10281;54.406;18.556;2022-11-13T01:32:49;12.93;;;7.93;;
20245;SDS011;10281;54.406;18.556;2022-11-13T01:35:16;17.33;;;8.60;;
20245;SDS011;10281;54.406;18.556;2022-11-13T01:37:42;11.40;;;7.73;;
20245;SDS011;10281;54.406;18.556;2022-11-13T01:40:09;17.10;;;8.07;;
20245;SDS011;10281;54.406;18.556;2022-11-13T01:42:38;17.53;;;7.87;;
20245;SDS011;10281;54.406;18.556;2022-11-13T01:47:43;12.97;;;7.03;;
20245;SDS011;10281;54.406;18.556;2022-11-13T01:50:10;11.27;;;6.80;;
20245;SDS011;10281;54.406;18.556;2022-11-13T01:52:39;13.10;;;7.53;;
20245;SDS011;10281;54.406;18.556;2022-11-13T01:55:09;11.37;;;6.60;;
20245;SDS011;10281;54.406;18.556;2022-11-13T01:57:38;12.67;;;6.80;;
20245;SDS011;10281;54.406;18.556;2022-11-13T02:00:07;14.00;;;7.23;;
20245;SDS011;10281;54.406;18.556;2022-11-13T02:02:36;11.53;;;6.60;;
20245;SDS011;10281;54.406;18.556;2022-11-13T02:05:03;12.50;;;7.07;;
20245;SDS011;10281;54.406;18.556;2022-11-13T02:07:32;11.63;;;6.67;;
20245;SDS011;10281;54.406;18.556;2022-11-13T02:09:59;13.30;;;6.50;;
20245;SDS011;10281;54.406;18.556;2022-11-13T02:12:31;12.93;;;6.50;;
20245;SDS011;10281;54.406;18.556;2022-11-13T02:15:00;13.17;;;6.70;;
20245;SDS011;10281;54.406;18.556;2022-11-13T02:17:32;11.07;;;5.80;;
20245;SDS011;10281;54.406;18.556;2022-11-13T02:20:02;11.83;;;6.77;;
20245;SDS011;10281;54.406;18.556;2022-11-13T02:22:33;14.20;;;6.70;;
20245;SDS011;10281;54.406;18.556;2022-11-13T02:25:02;12.03;;;6.87;;
20245;SDS011;10281;54.406;18.556;2022-11-13T02:27:35;10.47;;;6.53;;
20245;SDS011;10281;54.406;18.556;2022-11-13T02:30:12;10.87;;;6.77;;
20245;SDS011;10281;54.406;18.556;2022-11-13T02:32:43;13.17;;;6.23;;
20245;SDS011;10281;54.406;18.556;2022-11-13T02:35:12;11.87;;;6.37;;
20245;SDS011;10281;54.406;18.556;2022-11-13T02:37:42;9.40;;;5.93;;
20245;SDS011;10281;54.406;18.556;2022-11-13T02:40:09;13.40;;;6.77;;
20245;SDS011;10281;54.406;18.556;2022-11-13T02:42:36;10.23;;;6.20;;
20245;SDS011;10281;54.406;18.556;2022-11-13T02:45:03;10.47;;;6.30;;
20245;SDS011;10281;54.406;18.556;2022-11-13T02:47:31;10.07;;;6.33;;
20245;SDS011;10281;54.406;18.556;2022-11-13T02:49:58;11.23;;;5.80;;
20245;SDS011;10281;54.406;18.556;2022-11-13T02:52:25;11.73;;;5.83;;
20245;SDS011;10281;54.406;18.556;2022-11-13T02:54:52;10.73;;;6.07;;
20245;SDS011;10281;54.406;18.556;2022-11-13T02:57:18;12.47;;;6.30;;
20245;SDS011;10281;54.406;18.556;2022-11-13T02:59:45;11.87;;;6.03;;
20245;SDS011;10281;54.406;18.556;2022-11-13T03:02:12;8.67;;;5.33;;
20245;SDS011;10281;54.406;18.556;2022-11-13T03:04:38;10.07;;;6.07;;
20245;SDS011;10281;54.406;18.556;2022-11-13T03:07:05;12.60;;;5.90;;
20245;SDS011;10281;54.406;18.556;2022-11-13T03:09:32;12.30;;;6.07;;
20245;SDS011;10281;54.406;18.556;2022-11-13T03:11:59;10.80;;;6.70;;
20245;SDS011;10281;54.406;18.556;2022-11-13T03:14:25;9.07;;;5.77;;
20245;SDS011;10281;54.406;18.556;2022-11-13T03:16:52;11.23;;;5.80;;
20245;SDS011;10281;54.406;18.556;2022-11-13T03:19:18;12.63;;;6.33;;
20245;SDS011;10281;54.406;18.556;2022-11-13T03:21:45;10.27;;;5.67;;
20245;SDS011;10281;54.406;18.556;2022-11-13T03:24:12;10.30;;;5.47;;
20245;SDS011;10281;54.406;18.556;2022-11-13T03:26:38;9.83;;;5.50;;
20245;SDS011;10281;54.406;18.556;2022-11-13T03:29:05;11.20;;;5.33;;
20245;SDS011;10281;54.406;18.556;2022-11-13T03:31:31;9.43;;;5.20;;
20245;SDS011;10281;54.406;18.556;2022-11-13T03:33:58;8.50;;;5.20;;
20245;SDS011;10281;54.406;18.556;2022-11-13T03:36:25;8.33;;;5.87;;
20245;SDS011;10281;54.406;18.556;2022-11-13T03:38:52;10.20;;;5.40;;
20245;SDS011;10281;54.406;18.556;2022-11-13T03:41:18;8.57;;;5.20;;
20245;SDS011;10281;54.406;18.556;2022-11-13T03:43:46;7.37;;;5.03;;
20245;SDS011;10281;54.406;18.556;2022-11-13T03:46:12;11.30;;;5.07;;
20245;SDS011;10281;54.406;18.556;2022-11-13T03:48:39;8.27;;;4.70;;
20245;SDS011;10281;54.406;18.556;2022-11-13T03:51:06;8.47;;;4.70;;
20245;SDS011;10281;54.406;18.556;2022-11-13T03:53:33;13.67;;;5.30;;
20245;SDS011;10281;54.406;18.556;2022-11-13T03:55:59;8.87;;;4.93;;
20245;SDS011;10281;54.406;18.556;2022-11-13T03:58:26;9.10;;;4.70;;
20245;SDS011;10281;54.406;18.556;2022-11-13T04:00:53;7.97;;;4.73;;
20245;SDS011;10281;54.406;18.556;2022-11-13T04:03:20;10.93;;;4.57;;
20245;SDS011;10281;54.406;18.556;2022-11-13T04:05:48;6.50;;;4.07;;
20245;SDS011;10281;54.406;18.556;2022-11-13T04:08:15;9.60;;;4.03;;
20245;SDS011;10281;54.406;18.556;2022-11-13T04:10:43;10.33;;;4.70;;
20245;SDS011;10281;54.406;18.556;2022-11-13T04:13:10;6.73;;;3.73;;
20245;SDS011;10281;54.406;18.556;2022-11-13T04:15:37;12.63;;;4.60;;
20245;SDS011;10281;54.406;18.556;2022-11-13T04:18:03;9.70;;;4.40;;
20245;SDS011;10281;54.406;18.556;2022-11-13T04:20:30;9.87;;;5.00;;
20245;SDS011;10281;54.406;18.556;2022-11-13T04:22:57;9.83;;;5.10;;
20245;SDS011;10281;54.406;18.556;2022-11-13T04:25:24;8.37;;;4.47;;
20245;SDS011;10281;54.406;18.556;2022-11-13T04:27:51;9.90;;;4.83;;
20245;SDS011;10281;54.406;18.556;2022-11-13T04:30:18;9.40;;;4.87;;
20245;SDS011;10281;54.406;18.556;2022-11-13T04:32:45;8.67;;;4.80;;
20245;SDS011;10281;54.406;18.556;2022-11-13T04:35:12;10.97;;;4.87;;
20245;SDS011;10281;54.406;18.556;2022-11-13T04:37:38;10.30;;;4.40;;
20245;SDS011;10281;54.406;18.556;2022-11-13T04:40:05;8.00;;;4.03;;
20245;SDS011;10281;54.406;18.556;2022-11-13T04:42:32;7.63;;;4.07;;
20245;SDS011;10281;54.406;18.556;2022-11-13T04:45:05;8.20;;;4.97;;
20245;SDS011;10281;54.406;18.556;2022-11-13T04:47:32;7.63;;;4.33;;
20245;SDS011;10281;54.406;18.556;2022-11-13T04:49:58;7.27;;;4.87;;
20245;SDS011;10281;54.406;18.556;2022-11-13T04:52:25;9.10;;;4.60;;
20245;SDS011;10281;54.406;18.556;2022-11-13T04:54:53;7.73;;;4.50;;
20245;SDS011;10281;54.406;18.556;2022-11-13T04:57:20;8.20;;;4.40;;
20245;SDS011;10281;54.406;18.556;2022-11-13T04:59:47;10.83;;;7.40;;
20245;SDS011;10281;54.406;18.556;2022-11-13T05:02:13;11.87;;;6.40;;
20245;SDS011;10281;54.406;18.556;2022-11-13T05:04:40;9.87;;;6.10;;
20245;SDS011;10281;54.406;18.556;2022-11-13T05:07:06;11.93;;;5.10;;
20245;SDS011;10281;54.406;18.556;2022-11-13T05:09:33;9.53;;;5.17;;
20245;SDS011;10281;54.406;18.556;2022-11-13T05:12:00;8.73;;;4.63;;
20245;SDS011;10281;54.406;18.556;2022-11-13T05:14:26;9.60;;;5.00;;
20245;SDS011;10281;54.406;18.556;2022-11-13T05:16:53;8.70;;;4.87;;
20245;SDS011;10281;54.406;18.556;2022-11-13T05:19:19;6.20;;;4.57;;
20245;SDS011;10281;54.406;18.556;2022-11-13T05:21:46;8.10;;;4.70;;
20245;SDS011;10281;54.406;18.556;2022-11-13T05:24:13;9.70;;;4.40;;
20245;SDS011;10281;54.406;18.556;2022-11-13T05:26:39;9.00;;;4.80;;
20245;SDS011;10281;54.406;18.556;2022-11-13T05:29:06;5.77;;;4.20;;
20245;SDS011;10281;54.406;18.556;2022-11-13T05:31:33;8.30;;;5.23;;
20245;SDS011;10281;54.406;18.556;2022-11-13T05:34:01;7.53;;;4.57;;
20245;SDS011;10281;54.406;18.556;2022-11-13T05:36:28;11.53;;;5.10;;
20245;SDS011;10281;54.406;18.556;2022-11-13T05:38:55;9.23;;;4.80;;
20245;SDS011;10281;54.406;18.556;2022-11-13T05:41:22;7.93;;;4.90;;
20245;SDS011;10281;54.406;18.556;2022-11-13T05:43:49;8.30;;;4.63;;
20245;SDS011;10281;54.406;18.556;2022-11-13T05:46:17;8.90;;;5.17;;
20245;SDS011;10281;54.406;18.556;2022-11-13T05:48:46;8.07;;;4.43;;
20245;SDS011;10281;54.406;18.556;2022-11-13T05:51:16;7.57;;;4.60;;
20245;SDS011;10281;54.406;18.556;2022-11-13T05:53:46;12.03;;;5.17;;
20245;SDS011;10281;54.406;18.556;2022-11-13T05:56:14;10.80;;;4.97;;
20245;SDS011;10281;54.406;18.556;2022-11-13T05:58:44;9.13;;;4.83;;
20245;SDS011;10281;54.406;18.556;2022-11-13T06:01:13;8.33;;;4.67;;
20245;SDS011;10281;54.406;18.556;2022-11-13T06:03:42;7.60;;;4.40;;
20245;SDS011;10281;54.406;18.556;2022-11-13T06:06:11;9.97;;;4.80;;
20245;SDS011;10281;54.406;18.556;2022-11-13T06:08:39;7.93;;;4.70;;
20245;SDS011;10281;54.406;18.556;2022-11-13T06:11:08;8.17;;;4.63;;
20245;SDS011;10281;54.406;18.556;2022-11-13T06:13:37;9.43;;;4.73;;
20245;SDS011;10281;54.406;18.556;2022-11-13T06:16:06;7.60;;;4.00;;
20245;SDS011;10281;54.406;18.556;2022-11-13T06:18:34;7.27;;;4.27;;
20245;SDS011;10281;54.406;18.556;2022-11-13T06:21:03;7.27;;;4.30;;
20245;SDS011;10281;54.406;18.556;2022-11-13T06:23:33;10.03;;;4.60;;
20245;SDS011;10281;54.406;18.556;2022-11-13T06:26:02;8.47;;;4.90;;
20245;SDS011;10281;54.406;18.556;2022-11-13T06:28:29;7.70;;;4.50;;
20245;SDS011;10281;54.406;18.556;2022-11-13T06:31:01;12.20;;;4.73;;
20245;SDS011;10281;54.406;18.556;2022-11-13T06:33:29;9.70;;;5.23;;
20245;SDS011;10281;54.406;18.556;2022-11-13T06:35:56;6.07;;;4.30;;
20245;SDS011;10281;54.406;18.556;2022-11-13T06:38:23;7.27;;;4.10;;
20245;SDS011;10281;54.406;18.556;2022-11-13T06:40:49;7.87;;;4.40;;
20245;SDS011;10281;54.406;18.556;2022-11-13T06:43:16;8.17;;;4.30;;
20245;SDS011;10281;54.406;18.556;2022-11-13T06:45:43;8.53;;;4.87;;
20245;SDS011;10281;54.406;18.556;2022-11-13T06:48:09;7.33;;;4.77;;
20245;SDS011;10281;54.406;18.556;2022-11-13T06:50:36;6.20;;;4.30;;
20245;SDS011;10281;54.406;18.556;2022-11-13T06:53:03;9.13;;;4.93;;
20245;SDS011;10281;54.406;18.556;2022-11-13T06:55:29;7.17;;;4.63;;
20245;SDS011;10281;54.406;18.556;2022-11-13T06:57:56;8.50;;;5.00;;
20245;SDS011;10281;54.406;18.556;2022-11-13T07:00:22;9.20;;;5.83;;
20245;SDS011;10281;54.406;18.556;2022-11-13T07:02:49;9.10;;;6.13;;
20245;SDS011;10281;54.406;18.556;2022-11-13T07:05:16;9.73;;;5.80;;
20245;SDS011;10281;54.406;18.556;2022-11-13T07:07:43;13.17;;;6.10;;
20245;SDS011;10281;54.406;18.556;2022-11-13T07:10:09;9.50;;;5.70;;
20245;SDS011;10281;54.406;18.556;2022-11-13T07:12:36;14.40;;;7.00;;
20245;SDS011;10281;54.406;18.556;2022-11-13T07:15:03;8.07;;;5.37;;
20245;SDS011;10281;54.406;18.556;2022-11-13T07:17:30;10.30;;;4.93;;
20245;SDS011;10281;54.406;18.556;2022-11-13T07:19:56;9.33;;;4.63;;
20245;SDS011;10281;54.406;18.556;2022-11-13T07:22:23;8.23;;;4.63;;
20245;SDS011;10281;54.406;18.556;2022-11-13T07:24:49;7.70;;;5.17;;
20245;SDS011;10281;54.406;18.556;2022-11-13T07:27:16;10.40;;;5.77;;
20245;SDS011;10281;54.406;18.556;2022-11-13T07:29:43;9.27;;;5.47;;
20245;SDS011;10281;54.406;18.556;2022-11-13T07:32:09;6.97;;;5.27;;
20245;SDS011;10281;54.406;18.556;2022-11-13T07:34:36;8.13;;;5.07;;
20245;SDS011;10281;54.406;18.556;2022-11-13T07:37:02;10.53;;;5.93;;
20245;SDS011;10281;54.406;18.556;2022-11-13T07:39:31;11.57;;;6.20;;
20245;SDS011;10281;54.406;18.556;2022-11-13T07:41:58;11.90;;;5.60;;
20245;SDS011;10281;54.406;18.556;2022-11-13T07:44:24;11.20;;;5.13;;
20245;SDS011;10281;54.406;18.556;2022-11-13T07:46:51;9.17;;;4.93;;
20245;SDS011;10281;54.406;18.556;2022-11-13T07:49:17;7.20;;;4.83;;
20245;SDS011;10281;54.406;18.556;2022-11-13T07:51:44;9.67;;;4.73;;
20245;SDS011;10281;54.406;18.556;2022-11-13T07:54:11;10.43;;;4.83;;
20245;SDS011;10281;54.406;18.556;2022-11-13T07:56:37;9.03;;;4.80;;
20245;SDS011;10281;54.406;18.556;2022-11-13T07:59:04;7.83;;;5.20;;
20245;SDS011;10281;54.406;18.556;2022-11-13T08:01:30;7.43;;;4.47;;
20245;SDS011;10281;54.406;18.556;2022-11-13T08:03:57;6.27;;;4.43;;
20245;SDS011;10281;54.406;18.556;2022-11-13T08:06:24;8.33;;;4.40;;
20245;SDS011;10281;54.406;18.556;2022-11-13T08:08:52;5.60;;;4.23;;
20245;SDS011;10281;54.406;18.556;2022-11-13T08:11:19;9.77;;;4.37;;
20245;SDS011;10281;54.406;18.556;2022-11-13T08:13:45;7.67;;;3.60;;
20245;SDS011;10281;54.406;18.556;2022-11-13T08:16:12;5.23;;;3.80;;
20245;SDS011;10281;54.406;18.556;2022-11-13T08:18:39;6.50;;;3.60;;
20245;SDS011;10281;54.406;18.556;2022-11-13T08:21:05;6.73;;;4.67;;
20245;SDS011;10281;54.406;18.556;2022-11-13T08:23:32;7.10;;;4.17;;
20245;SDS011;10281;54.406;18.556;2022-11-13T08:26:02;7.63;;;4.10;;
20245;SDS011;10281;54.406;18.556;2022-11-13T08:28:29;8.80;;;3.70;;
20245;SDS011;10281;54.406;18.556;2022-11-13T08:30:55;7.83;;;4.00;;
20245;SDS011;10281;54.406;18.556;2022-11-13T08:33:22;8.17;;;3.83;;
20245;SDS011;10281;54.406;18.556;2022-11-13T08:35:54;8.77;;;4.13;;
20245;SDS011;10281;54.406;18.556;2022-11-13T08:38:22;6.87;;;4.37;;
20245;SDS011;10281;54.406;18.556;2022-11-13T08:40:50;8.37;;;4.67;;
20245;SDS011;10281;54.406;18.556;2022-11-13T08:43:17;8.27;;;4.20;;
20245;SDS011;10281;54.406;18.556;2022-11-13T08:45:44;9.47;;;4.70;;
20245;SDS011;10281;54.406;18.556;2022-11-13T08:48:12;10.50;;;4.70;;
20245;SDS011;10281;54.406;18.556;2022-11-13T08:50:39;9.67;;;4.00;;
20245;SDS011;10281;54.406;18.556;2022-11-13T08:53:05;9.33;;;4.10;;
20245;SDS011;10281;54.406;18.556;2022-11-13T08:55:32;7.13;;;3.53;;
20245;SDS011;10281;54.406;18.556;2022-11-13T08:58:00;7.50;;;2.70;;
20245;SDS011;10281;54.406;18.556;2022-11-13T09:00:28;4.67;;;2.90;;
20245;SDS011;10281;54.406;18.556;2022-11-13T09:02:55;6.70;;;2.90;;
20245;SDS011;10281;54.406;18.556;2022-11-13T09:05:24;8.97;;;2.57;;
20245;SDS011;10281;54.406;18.556;2022-11-13T09:07:50;7.93;;;2.70;;
20245;SDS011;10281;54.406;18.556;2022-11-13T09:10:23;5.17;;;2.50;;
20245;SDS011;10281;54.406;18.556;2022-11-13T09:12:57;7.67;;;2.60;;
20245;SDS011;10281;54.406;18.556;2022-11-13T09:15:26;6.20;;;2.50;;
20245;SDS011;10281;54.406;18.556;2022-11-13T09:17:55;7.13;;;2.97;;
20245;SDS011;10281;54.406;18.556;2022-11-13T09:20:23;7.23;;;3.40;;
20245;SDS011;10281;54.406;18.556;2022-11-13T09:22:56;5.67;;;2.37;;
20245;SDS011;10281;54.406;18.556;2022-11-13T09:25:24;7.30;;;2.17;;
20245;SDS011;10281;54.406;18.556;2022-11-13T09:27:53;5.63;;;2.53;;
20245;SDS011;10281;54.406;18.556;2022-11-13T09:30:21;3.43;;;1.83;;
20245;SDS011;10281;54.406;18.556;2022-11-13T09:32:51;4.50;;;2.20;;
20245;SDS011;10281;54.406;18.556;2022-11-13T09:35:18;7.87;;;2.03;;
20245;SDS011;10281;54.406;18.556;2022-11-13T09:37:50;4.37;;;2.33;;
20245;SDS011;10281;54.406;18.556;2022-11-13T09:40:21;4.37;;;2.17;;
20245;SDS011;10281;54.406;18.556;2022-11-13T09:42:47;5.43;;;2.43;;
20245;SDS011;10281;54.406;18.556;2022-11-13T09:45:14;4.40;;;2.33;;
20245;SDS011;10281;54.406;18.556;2022-11-13T09:47:42;8.53;;;2.60;;
20245;SDS011;10281;54.406;18.556;2022-11-13T09:50:18;5.67;;;2.50;;
20245;SDS011;10281;54.406;18.556;2022-11-13T09:52:46;5.07;;;2.20;;
20245;SDS011;10281;54.406;18.556;2022-11-13T09:55:16;5.37;;;2.10;;
20245;SDS011;10281;54.406;18.556;2022-11-13T09:58:04;4.27;;;1.93;;
20245;SDS011;10281;54.406;18.556;2022-11-13T10:00:35;4.57;;;2.17;;
20245;SDS011;10281;54.406;18.556;2022-11-13T10:03:10;5.43;;;2.23;;
20245;SDS011;10281;54.406;18.556;2022-11-13T10:05:40;5.07;;;2.40;;
20245;SDS011;10281;54.406;18.556;2022-11-13T10:08:12;5.97;;;2.40;;
20245;SDS011;10281;54.406;18.556;2022-11-13T10:11:01;6.57;;;2.40;;
20245;SDS011;10281;54.406;18.556;2022-11-13T10:13:50;4.20;;;2.30;;
20245;SDS011;10281;54.406;18.556;2022-11-13T10:16:30;5.50;;;2.30;;
20245;SDS011;10281;54.406;18.556;2022-11-13T10:19:04;6.00;;;2.30;;
20245;SDS011;10281;54.406;18.556;2022-11-13T10:21:41;5.93;;;2.50;;
20245;SDS011;10281;54.406;18.556;2022-11-13T10:24:14;5.27;;;2.60;;
20245;SDS011;10281;54.406;18.556;2022-11-13T10:26:42;5.40;;;2.57;;
20245;SDS011;10281;54.406;18.556;2022-11-13T10:29:11;5.03;;;2.43;;
20245;SDS011;10281;54.406;18.556;2022-11-13T10:31:41;4.27;;;2.47;;
20245;SDS011;10281;54.406;18.556;2022-11-13T10:34:13;6.67;;;2.73;;
20245;SDS011;10281;54.406;18.556;2022-11-13T10:36:48;6.27;;;2.43;;
20245;SDS011;10281;54.406;18.556;2022-11-13T10:39:19;6.57;;;2.47;;
20245;SDS011;10281;54.406;18.556;2022-11-13T10:41:46;7.63;;;3.17;;
20245;SDS011;10281;54.406;18.556;2022-11-13T10:44:17;4.87;;;2.17;;
20245;SDS011;10281;54.406;18.556;2022-11-13T10:46:47;5.20;;;2.50;;
20245;SDS011;10281;54.406;18.556;2022-11-13T10:49:17;6.10;;;2.67;;
20245;SDS011;10281;54.406;18.556;2022-11-13T10:51:54;6.60;;;2.50;;
20245;SDS011;10281;54.406;18.556;2022-11-13T10:54:25;6.30;;;2.33;;
20245;SDS011;10281;54.406;18.556;2022-11-13T10:56:55;6.70;;;2.57;;
20245;SDS011;10281;54.406;18.556;2022-11-13T10:59:24;4.87;;;2.73;;
20245;SDS011;10281;54.406;18.556;2022-11-13T11:01:51;5.80;;;2.40;;
20245;SDS011;10281;54.406;18.556;2022-11-13T11:04:22;7.47;;;2.60;;
20245;SDS011;10281;54.406;18.556;2022-11-13T11:06:52;5.50;;;2.40;;
20245;SDS011;10281;54.406;18.556;2022-11-13T11:09:22;5.33;;;2.20;;
20245;SDS011;10281;54.406;18.556;2022-11-13T11:14:36;3.60;;;2.23;;
20245;SDS011;10281;54.406;18.556;2022-11-13T11:17:04;5.27;;;2.70;;
20245;SDS011;10281;54.406;18.556;2022-11-13T11:19:32;6.60;;;2.70;;
20245;SDS011;10281;54.406;18.556;2022-11-13T11:22:07;5.27;;;2.60;;
20245;SDS011;10281;54.406;18.556;2022-11-13T11:24:44;7.27;;;2.80;;
20245;SDS011;10281;54.406;18.556;2022-11-13T11:27:16;5.50;;;2.33;;
20245;SDS011;10281;54.406;18.556;2022-11-13T11:29:50;4.97;;;2.40;;
20245;SDS011;10281;54.406;18.556;2022-11-13T11:32:22;7.57;;;3.10;;
20245;SDS011;10281;54.406;18.556;2022-11-13T11:35:11;5.07;;;2.50;;
20245;SDS011;10281;54.406;18.556;2022-11-13T11:37:40;8.93;;;2.60;;
20245;SDS011;10281;54.406;18.556;2022-11-13T11:43:38;6.10;;;2.40;;
20245;SDS011;10281;54.406;18.556;2022-11-13T11:45:52;5.63;;;3.20;;
20245;SDS011;10281;54.406;18.556;2022-11-13T11:48:20;7.67;;;2.77;;
20245;SDS011;10281;54.406;18.556;2022-11-13T11:50:54;6.93;;;2.93;;
20245;SDS011;10281;54.406;18.556;2022-11-13T11:53:35;13.03;;;3.83;;
20245;SDS011;10281;54.406;18.556;2022-11-13T11:56:11;8.27;;;2.93;;
20245;SDS011;10281;54.406;18.556;2022-11-13T11:58:50;7.80;;;3.13;;
20245;SDS011;10281;54.406;18.556;2022-11-13T12:03:59;7.63;;;3.17;;
20245;SDS011;10281;54.406;18.556;2022-11-13T12:06:40;7.30;;;3.20;;
20245;SDS011;10281;54.406;18.556;2022-11-13T12:09:16;7.80;;;3.57;;
20245;SDS011;10281;54.406;18.556;2022-11-13T12:11:50;6.07;;;3.30;;
20245;SDS011;10281;54.406;18.556;2022-11-13T12:14:31;8.50;;;3.80;;
20245;SDS011;10281;54.406;18.556;2022-11-13T12:17:07;7.57;;;4.20;;
20245;SDS011;10281;54.406;18.556;2022-11-13T12:19:58;9.50;;;4.80;;
20245;SDS011;10281;54.406;18.556;2022-11-13T12:27:58;10.40;;;3.30;;
20245;SDS011;10281;54.406;18.556;2022-11-13T12:30:30;8.43;;;3.00;;
20245;SDS011;10281;54.406;18.556;2022-11-13T12:33:17;7.07;;;3.40;;
20245;SDS011;10281;54.406;18.556;2022-11-13T12:35:57;6.47;;;3.67;;
20245;SDS011;10281;54.406;18.556;2022-11-13T12:38:31;12.33;;;3.87;;
20245;SDS011;10281;54.406;18.556;2022-11-13T12:41:21;13.40;;;5.17;;
20245;SDS011;10281;54.406;18.556;2022-11-13T12:43:56;10.43;;;4.60;;
20245;SDS011;10281;54.406;18.556;2022-11-13T12:46:32;7.60;;;4.03;;
20245;SDS011;10281;54.406;18.556;2022-11-13T12:49:02;6.70;;;2.90;;
20245;SDS011;10281;54.406;18.556;2022-11-13T12:51:37;9.13;;;2.97;;
20245;SDS011;10281;54.406;18.556;2022-11-13T12:54:04;7.60;;;2.87;;
20245;SDS011;10281;54.406;18.556;2022-11-13T12:56:32;9.27;;;3.53;;
20245;SDS011;10281;54.406;18.556;2022-11-13T12:59:00;7.27;;;3.30;;
20245;SDS011;10281;54.406;18.556;2022-11-13T13:01:34;7.23;;;3.07;;
20245;SDS011;10281;54.406;18.556;2022-11-13T13:15:35;9.80;;;4.67;;
20245;SDS011;10281;54.406;18.556;2022-11-13T13:18:03;8.93;;;4.20;;
20245;SDS011;10281;54.406;18.556;2022-11-13T13:20:45;9.23;;;3.73;;
20245;SDS011;10281;54.406;18.556;2022-11-13T13:23:13;8.10;;;3.73;;
20245;SDS011;10281;54.406;18.556;2022-11-13T13:25:44;8.67;;;3.70;;
20245;SDS011;10281;54.406;18.556;2022-11-13T13:28:16;10.73;;;3.57;;
20245;SDS011;10281;54.406;18.556;2022-11-13T13:30:50;10.67;;;4.37;;
20245;SDS011;10281;54.406;18.556;2022-11-13T13:33:21;10.63;;;5.03;;
20245;SDS011;10281;54.406;18.556;2022-11-13T13:36:09;10.03;;;4.80;;
20245;SDS011;10281;54.406;18.556;2022-11-13T13:38:55;10.60;;;4.20;;
20245;SDS011;10281;54.406;18.556;2022-11-13T13:41:32;10.87;;;4.23;;
20245;SDS011;10281;54.406;18.556;2022-11-13T13:44:10;11.07;;;4.43;;
20245;SDS011;10281;54.406;18.556;2022-11-13T13:46:47;12.00;;;4.37;;
20245;SDS011;10281;54.406;18.556;2022-11-13T13:49:16;13.97;;;4.57;;
20245;SDS011;10281;54.406;18.556;2022-11-13T13:51:47;10.70;;;4.40;;
20245;SDS011;10281;54.406;18.556;2022-11-13T13:54:17;11.00;;;4.40;;
20245;SDS011;10281;54.406;18.556;2022-11-13T13:56:46;16.77;;;5.00;;
20245;SDS011;10281;54.406;18.556;2022-11-13T13:59:15;11.53;;;5.03;;
20245;SDS011;10281;54.406;18.556;2022-11-13T14:01:53;10.17;;;4.90;;
20245;SDS011;10281;54.406;18.556;2022-11-13T14:04:23;9.53;;;5.13;;
20245;SDS011;10281;54.406;18.556;2022-11-13T14:06:53;9.60;;;4.60;;
20245;SDS011;10281;54.406;18.556;2022-11-13T14:09:23;7.70;;;4.00;;
20245;SDS011;10281;54.406;18.556;2022-11-13T14:11:56;10.57;;;4.60;;
20245;SDS011;10281;54.406;18.556;2022-11-13T14:14:24;9.77;;;5.03;;
20245;SDS011;10281;54.406;18.556;2022-11-13T14:16:53;8.07;;;4.20;;
20245;SDS011;10281;54.406;18.556;2022-11-13T14:19:21;11.20;;;5.23;;
20245;SDS011;10281;54.406;18.556;2022-11-13T14:21:50;10.83;;;4.43;;
20245;SDS011;10281;54.406;18.556;2022-11-13T14:24:22;7.40;;;4.17;;
20245;SDS011;10281;54.406;18.556;2022-11-13T14:26:53;7.87;;;4.23;;
20245;SDS011;10281;54.406;18.556;2022-11-13T14:29:31;6.17;;;3.53;;
20245;SDS011;10281;54.406;18.556;2022-11-13T14:32:03;10.20;;;3.70;;
20245;SDS011;10281;54.406;18.556;2022-11-13T14:34:31;7.87;;;3.97;;
20245;SDS011;10281;54.406;18.556;2022-11-13T14:37:16;8.93;;;3.80;;
20245;SDS011;10281;54.406;18.556;2022-11-13T14:39:49;7.93;;;5.47;;
20245;SDS011;10281;54.406;18.556;2022-11-13T14:42:19;7.67;;;4.60;;
20245;SDS011;10281;54.406;18.556;2022-11-13T14:44:48;8.10;;;4.60;;
20245;SDS011;10281;54.406;18.556;2022-11-13T14:47:20;11.97;;;5.50;;
20245;SDS011;10281;54.406;18.556;2022-11-13T14:49:50;8.60;;;4.27;;
20245;SDS011;10281;54.406;18.556;2022-11-13T14:52:24;7.93;;;3.97;;
20245;SDS011;10281;54.406;18.556;2022-11-13T14:57:27;6.80;;;4.17;;
20245;SDS011;10281;54.406;18.556;2022-11-13T14:59:54;9.50;;;4.50;;
20245;SDS011;10281;54.406;18.556;2022-11-13T15:02:20;9.17;;;4.50;;
20245;SDS011;10281;54.406;18.556;2022-11-13T15:04:47;8.43;;;3.77;;
20245;SDS011;10281;54.406;18.556;2022-11-13T15:07:17;7.97;;;3.70;;
20245;SDS011;10281;54.406;18.556;2022-11-13T15:09:46;5.53;;;3.67;;
20245;SDS011;10281;54.406;18.556;2022-11-13T15:12:13;6.60;;;3.50;;
20245;SDS011;10281;54.406;18.556;2022-11-13T15:14:40;9.30;;;4.50;;